Umm Slal — V7PW3 — position and weather

sailwx.info

Track history (hours):
 
Tides and Currents Weather Stations Pressure Air Temp Water Temp Dewpoint Dewpoint Depression Visibility Wind Speed Wind Dir Waves Ship Positions

Umm Slal

Last reported at 2015-Mar-27 11:26 UTC. Time now 2015-Mar-31 15:30 UTC.
Position N 01°59' E 102°14'.

Length 345 m; draft 9.4 m.

Type: Ship (hazmat cat A). MMSI: 538003300.

Date/timePositionNaut miles runAvg speedWind from/ knotsBaromVisibWave heightAir tempDewpointWater temp
2015-Mar-27 11:26N 01°59' E 102°14'1416.1
2015-Mar-27 10:33N 01°52' E 102°26'1616.0
2015-Mar-27 09:32N 01°46' E 102°41'70 2.0
2015-Mar-25 23:28N 01°11' E 103°42'3 3.6
2015-Mar-25 22:32N 01°09' E 103°44'6 5.8
2015-Mar-25 21:32N 01°11' E 103°50'10 9.4
2015-Mar-25 20:27N 01°15' E 103°59'910.2
2015-Mar-25 19:33N 01°16' E 104°08'  
2015-Mar-20 22:13N 30°42' E 124°59'1420.5
2015-Mar-20 21:33N 30°56' E 125°01'2020.5
2015-Mar-20 20:34N 31°16' E 124°59'4221.0
2015-Mar-20 18:33N 31°57' E 124°46'2519.6
2015-Mar-20 17:18N 32°20' E 124°37'  
Track history (hours):
 
Tides and Currents Weather Stations Pressure Air Temp Water Temp Dewpoint Dewpoint Depression Visibility Wind Speed Wind Dir Waves Ship Positions

Umm Slal

Last reported at 2015-Mar-27 11:26 UTC. Time now 2015-Mar-31 15:30 UTC.
Position N 01°59' E 102°14'.

Length 345 m; draft 9.4 m.

Type: Ship (hazmat cat A). MMSI: 538003300.

Date/timePositionNaut miles runAvg speedWind from/ knotsBaromVisibWave heightAir tempDewpointWater temp
2015-Mar-27 11:26N 01°59' E 102°14'1416.1
2015-Mar-27 10:33N 01°52' E 102°26'1616.0
2015-Mar-27 09:32N 01°46' E 102°41'70 2.0
2015-Mar-25 23:28N 01°11' E 103°42'3 3.6
2015-Mar-25 22:32N 01°09' E 103°44'6 5.8
2015-Mar-25 21:32N 01°11' E 103°50'10 9.4
2015-Mar-25 20:27N 01°15' E 103°59'910.2
2015-Mar-25 19:33N 01°16' E 104°08'  
2015-Mar-20 22:13N 30°42' E 124°59'1420.5
2015-Mar-20 21:33N 30°56' E 125°01'2020.5
2015-Mar-20 20:34N 31°16' E 124°59'4221.0
2015-Mar-20 18:33N 31°57' E 124°46'2519.6
2015-Mar-20 17:18N 32°20' E 124°37'  

Dump ship's entire track history